sensor_id;sensor_type;location;lat;lon;timestamp;P1;durP1;ratioP1;P2;durP2;ratioP2
70908;SDS011;58554;52.006;5.926;2023-02-11T00:01:10;24.95;;;13.40;;
70908;SDS011;58554;52.006;5.926;2023-02-11T00:03:44;25.42;;;11.80;;
70908;SDS011;58554;52.006;5.926;2023-02-11T00:06:10;25.97;;;12.77;;
70908;SDS011;58554;52.006;5.926;2023-02-11T00:08:37;25.57;;;11.97;;
70908;SDS011;58554;52.006;5.926;2023-02-11T00:11:09;26.45;;;12.65;;
70908;SDS011;58554;52.006;5.926;2023-02-11T00:13:39;28.52;;;12.25;;
70908;SDS011;58554;52.006;5.926;2023-02-11T00:16:06;25.60;;;11.18;;
70908;SDS011;58554;52.006;5.926;2023-02-11T00:18:35;23.05;;;11.07;;
70908;SDS011;58554;52.006;5.926;2023-02-11T00:21:05;21.40;;;11.35;;
70908;SDS011;58554;52.006;5.926;2023-02-11T00:23:33;22.42;;;10.73;;
70908;SDS011;58554;52.006;5.926;2023-02-11T00:25:59;23.60;;;10.67;;
70908;SDS011;58554;52.006;5.926;2023-02-11T00:28:28;21.27;;;10.95;;
70908;SDS011;58554;52.006;5.926;2023-02-11T00:30:55;22.55;;;10.68;;
70908;SDS011;58554;52.006;5.926;2023-02-11T00:33:23;21.50;;;9.85;;
70908;SDS011;58554;52.006;5.926;2023-02-11T00:35:49;24.80;;;10.97;;
70908;SDS011;58554;52.006;5.926;2023-02-11T00:38:16;23.10;;;10.83;;
70908;SDS011;58554;52.006;5.926;2023-02-11T00:40:42;19.90;;;9.70;;
70908;SDS011;58554;52.006;5.926;2023-02-11T00:43:09;23.98;;;10.40;;
70908;SDS011;58554;52.006;5.926;2023-02-11T00:45:38;22.35;;;9.60;;
70908;SDS011;58554;52.006;5.926;2023-02-11T00:48:05;22.73;;;10.20;;
70908;SDS011;58554;52.006;5.926;2023-02-11T00:50:31;23.88;;;10.32;;
70908;SDS011;58554;52.006;5.926;2023-02-11T00:52:58;20.40;;;9.77;;
70908;SDS011;58554;52.006;5.926;2023-02-11T00:55:26;20.60;;;10.00;;
70908;SDS011;58554;52.006;5.926;2023-02-11T00:57:52;21.00;;;9.30;;
70908;SDS011;58554;52.006;5.926;2023-02-11T01:00:19;18.13;;;8.65;;
70908;SDS011;58554;52.006;5.926;2023-02-11T01:02:48;24.63;;;9.80;;
70908;SDS011;58554;52.006;5.926;2023-02-11T01:05:14;20.58;;;9.50;;
70908;SDS011;58554;52.006;5.926;2023-02-11T01:07:41;17.55;;;7.40;;
70908;SDS011;58554;52.006;5.926;2023-02-11T01:10:08;19.70;;;9.30;;
70908;SDS011;58554;52.006;5.926;2023-02-11T01:12:34;19.13;;;8.63;;
70908;SDS011;58554;52.006;5.926;2023-02-11T01:15:01;19.53;;;8.53;;
70908;SDS011;58554;52.006;5.926;2023-02-11T01:17:28;18.83;;;8.13;;
70908;SDS011;58554;52.006;5.926;2023-02-11T01:19:57;17.85;;;8.82;;
70908;SDS011;58554;52.006;5.926;2023-02-11T01:22:24;18.83;;;8.52;;
70908;SDS011;58554;52.006;5.926;2023-02-11T01:24:51;19.63;;;8.50;;
70908;SDS011;58554;52.006;5.926;2023-02-11T01:27:17;21.60;;;9.07;;
70908;SDS011;58554;52.006;5.926;2023-02-11T01:29:43;20.73;;;8.33;;
70908;SDS011;58554;52.006;5.926;2023-02-11T01:32:10;19.15;;;9.00;;
70908;SDS011;58554;52.006;5.926;2023-02-11T01:34:37;21.35;;;9.13;;
70908;SDS011;58554;52.006;5.926;2023-02-11T01:37:06;19.27;;;8.00;;
70908;SDS011;58554;52.006;5.926;2023-02-11T01:39:32;20.95;;;8.63;;
70908;SDS011;58554;52.006;5.926;2023-02-11T01:41:59;18.48;;;8.68;;
70908;SDS011;58554;52.006;5.926;2023-02-11T01:44:27;17.70;;;8.47;;
70908;SDS011;58554;52.006;5.926;2023-02-11T01:46:56;23.63;;;8.83;;
70908;SDS011;58554;52.006;5.926;2023-02-11T01:49:24;22.88;;;8.70;;
70908;SDS011;58554;52.006;5.926;2023-02-11T01:51:56;21.48;;;8.98;;
70908;SDS011;58554;52.006;5.926;2023-02-11T01:54:34;18.05;;;8.60;;
70908;SDS011;58554;52.006;5.926;2023-02-11T01:57:07;19.90;;;8.70;;
70908;SDS011;58554;52.006;5.926;2023-02-11T01:59:42;22.20;;;8.10;;
70908;SDS011;58554;52.006;5.926;2023-02-11T02:02:20;19.75;;;8.05;;
70908;SDS011;58554;52.006;5.926;2023-02-11T02:04:57;18.50;;;8.57;;
70908;SDS011;58554;52.006;5.926;2023-02-11T02:07:34;20.58;;;9.02;;
70908;SDS011;58554;52.006;5.926;2023-02-11T02:10:14;18.38;;;7.63;;
70908;SDS011;58554;52.006;5.926;2023-02-11T02:12:45;17.90;;;8.27;;
70908;SDS011;58554;52.006;5.926;2023-02-11T02:15:23;18.20;;;8.90;;
70908;SDS011;58554;52.006;5.926;2023-02-11T02:18:02;21.27;;;8.60;;
70908;SDS011;58554;52.006;5.926;2023-02-11T02:20:51;20.80;;;8.20;;
70908;SDS011;58554;52.006;5.926;2023-02-11T02:23:51;18.83;;;7.83;;
70908;SDS011;58554;52.006;5.926;2023-02-11T02:27:04;19.70;;;8.50;;
70908;SDS011;58554;52.006;5.926;2023-02-11T02:30:20;15.98;;;7.07;;
70908;SDS011;58554;52.006;5.926;2023-02-11T02:33:32;20.17;;;8.20;;
70908;SDS011;58554;52.006;5.926;2023-02-11T02:36:12;18.97;;;8.80;;
70908;SDS011;58554;52.006;5.926;2023-02-11T02:38:51;19.38;;;8.80;;
70908;SDS011;58554;52.006;5.926;2023-02-11T02:41:23;17.98;;;8.82;;
70908;SDS011;58554;52.006;5.926;2023-02-11T02:43:55;20.60;;;8.43;;
70908;SDS011;58554;52.006;5.926;2023-02-11T02:46:23;19.42;;;8.20;;
70908;SDS011;58554;52.006;5.926;2023-02-11T02:48:56;19.05;;;8.80;;
70908;SDS011;58554;52.006;5.926;2023-02-11T02:51:41;20.73;;;7.63;;
70908;SDS011;58554;52.006;5.926;2023-02-11T02:54:44;18.90;;;7.68;;
70908;SDS011;58554;52.006;5.926;2023-02-11T02:57:44;20.73;;;8.10;;
70908;SDS011;58554;52.006;5.926;2023-02-11T03:00:34;15.65;;;7.43;;
70908;SDS011;58554;52.006;5.926;2023-02-11T03:03:16;15.68;;;7.38;;
70908;SDS011;58554;52.006;5.926;2023-02-11T03:05:59;19.05;;;8.48;;
70908;SDS011;58554;52.006;5.926;2023-02-11T03:08:33;21.80;;;8.57;;
70908;SDS011;58554;52.006;5.926;2023-02-11T03:11:09;16.43;;;7.60;;
70908;SDS011;58554;52.006;5.926;2023-02-11T03:13:42;24.23;;;9.03;;
70908;SDS011;58554;52.006;5.926;2023-02-11T03:16:12;27.27;;;9.35;;
70908;SDS011;58554;52.006;5.926;2023-02-11T03:18:45;21.33;;;7.97;;
70908;SDS011;58554;52.006;5.926;2023-02-11T03:21:26;20.42;;;7.85;;
70908;SDS011;58554;52.006;5.926;2023-02-11T03:23:59;17.85;;;7.70;;
70908;SDS011;58554;52.006;5.926;2023-02-11T03:26:33;16.58;;;7.65;;
70908;SDS011;58554;52.006;5.926;2023-02-11T03:29:09;19.77;;;7.83;;
70908;SDS011;58554;52.006;5.926;2023-02-11T03:31:45;18.53;;;8.00;;
70908;SDS011;58554;52.006;5.926;2023-02-11T03:34:25;23.92;;;8.55;;
70908;SDS011;58554;52.006;5.926;2023-02-11T03:37:04;22.65;;;9.32;;
70908;SDS011;58554;52.006;5.926;2023-02-11T03:39:38;20.55;;;8.48;;
70908;SDS011;58554;52.006;5.926;2023-02-11T03:42:11;18.40;;;8.25;;
70908;SDS011;58554;52.006;5.926;2023-02-11T03:44:42;20.55;;;8.88;;
70908;SDS011;58554;52.006;5.926;2023-02-11T03:47:18;23.27;;;8.52;;
70908;SDS011;58554;52.006;5.926;2023-02-11T03:49:52;21.80;;;8.83;;
70908;SDS011;58554;52.006;5.926;2023-02-11T03:52:30;23.38;;;9.45;;
70908;SDS011;58554;52.006;5.926;2023-02-11T03:54:59;21.75;;;9.57;;
70908;SDS011;58554;52.006;5.926;2023-02-11T03:57:34;22.30;;;10.18;;
70908;SDS011;58554;52.006;5.926;2023-02-11T04:00:01;18.88;;;8.80;;
70908;SDS011;58554;52.006;5.926;2023-02-11T04:02:32;23.58;;;9.45;;
70908;SDS011;58554;52.006;5.926;2023-02-11T04:05:02;25.43;;;8.77;;
70908;SDS011;58554;52.006;5.926;2023-02-11T04:07:32;25.05;;;10.32;;
70908;SDS011;58554;52.006;5.926;2023-02-11T04:09:59;21.67;;;9.32;;
70908;SDS011;58554;52.006;5.926;2023-02-11T04:12:25;23.48;;;10.15;;
70908;SDS011;58554;52.006;5.926;2023-02-11T04:14:52;27.02;;;10.57;;
70908;SDS011;58554;52.006;5.926;2023-02-11T04:17:18;18.90;;;8.87;;
70908;SDS011;58554;52.006;5.926;2023-02-11T04:19:45;23.67;;;10.43;;
70908;SDS011;58554;52.006;5.926;2023-02-11T04:22:12;28.35;;;11.10;;
70908;SDS011;58554;52.006;5.926;2023-02-11T04:24:41;23.25;;;11.65;;
70908;SDS011;58554;52.006;5.926;2023-02-11T04:27:07;27.00;;;10.60;;
70908;SDS011;58554;52.006;5.926;2023-02-11T04:29:34;27.85;;;12.15;;
70908;SDS011;58554;52.006;5.926;2023-02-11T04:32:01;31.65;;;12.50;;
70908;SDS011;58554;52.006;5.926;2023-02-11T04:34:27;29.83;;;11.87;;
70908;SDS011;58554;52.006;5.926;2023-02-11T04:36:54;28.33;;;12.60;;
70908;SDS011;58554;52.006;5.926;2023-02-11T04:39:20;26.13;;;12.32;;
70908;SDS011;58554;52.006;5.926;2023-02-11T04:41:50;32.15;;;13.15;;
70908;SDS011;58554;52.006;5.926;2023-02-11T04:44:16;26.27;;;12.40;;
70908;SDS011;58554;52.006;5.926;2023-02-11T04:46:43;30.60;;;12.65;;
70908;SDS011;58554;52.006;5.926;2023-02-11T04:49:10;34.03;;;13.17;;
70908;SDS011;58554;52.006;5.926;2023-02-11T04:51:39;30.45;;;13.32;;
70908;SDS011;58554;52.006;5.926;2023-02-11T04:54:08;30.02;;;13.20;;
70908;SDS011;58554;52.006;5.926;2023-02-11T04:56:35;28.20;;;12.00;;
70908;SDS011;58554;52.006;5.926;2023-02-11T04:59:05;33.08;;;13.15;;
70908;SDS011;58554;52.006;5.926;2023-02-11T05:01:32;27.48;;;11.50;;
70908;SDS011;58554;52.006;5.926;2023-02-11T05:03:59;31.25;;;13.30;;
70908;SDS011;58554;52.006;5.926;2023-02-11T05:06:25;29.80;;;13.30;;
70908;SDS011;58554;52.006;5.926;2023-02-11T05:08:52;29.40;;;12.40;;
70908;SDS011;58554;52.006;5.926;2023-02-11T05:11:19;25.50;;;11.30;;
70908;SDS011;58554;52.006;5.926;2023-02-11T05:13:48;32.08;;;13.15;;
70908;SDS011;58554;52.006;5.926;2023-02-11T05:16:18;29.15;;;12.65;;
70908;SDS011;58554;52.006;5.926;2023-02-11T05:18:45;32.20;;;13.73;;
70908;SDS011;58554;52.006;5.926;2023-02-11T05:21:12;29.80;;;13.50;;
70908;SDS011;58554;52.006;5.926;2023-02-11T05:23:42;29.17;;;15.75;;
70908;SDS011;58554;52.006;5.926;2023-02-11T05:26:09;34.40;;;13.98;;
70908;SDS011;58554;52.006;5.926;2023-02-11T05:28:37;36.15;;;14.98;;
70908;SDS011;58554;52.006;5.926;2023-02-11T05:31:07;31.10;;;13.20;;
70908;SDS011;58554;52.006;5.926;2023-02-11T05:33:36;31.90;;;13.63;;
70908;SDS011;58554;52.006;5.926;2023-02-11T05:36:04;32.75;;;15.50;;
70908;SDS011;58554;52.006;5.926;2023-02-11T05:38:36;32.42;;;13.95;;
70908;SDS011;58554;52.006;5.926;2023-02-11T05:41:04;35.63;;;15.07;;
70908;SDS011;58554;52.006;5.926;2023-02-11T05:43:33;39.17;;;15.77;;
70908;SDS011;58554;52.006;5.926;2023-02-11T05:46:00;37.10;;;14.95;;
70908;SDS011;58554;52.006;5.926;2023-02-11T05:48:26;34.08;;;15.20;;
70908;SDS011;58554;52.006;5.926;2023-02-11T05:50:55;34.55;;;14.75;;
70908;SDS011;58554;52.006;5.926;2023-02-11T05:53:22;31.77;;;13.85;;
70908;SDS011;58554;52.006;5.926;2023-02-11T05:55:49;41.53;;;15.50;;
70908;SDS011;58554;52.006;5.926;2023-02-11T05:58:15;36.20;;;15.93;;
70908;SDS011;58554;52.006;5.926;2023-02-11T06:00:42;36.30;;;14.90;;
70908;SDS011;58554;52.006;5.926;2023-02-11T06:03:08;37.70;;;16.63;;
70908;SDS011;58554;52.006;5.926;2023-02-11T06:05:35;39.05;;;15.23;;
70908;SDS011;58554;52.006;5.926;2023-02-11T06:08:04;33.38;;;14.70;;
70908;SDS011;58554;52.006;5.926;2023-02-11T06:10:31;43.45;;;17.17;;
70908;SDS011;58554;52.006;5.926;2023-02-11T06:12:57;38.72;;;16.65;;
70908;SDS011;58554;52.006;5.926;2023-02-11T06:15:24;36.38;;;15.98;;
70908;SDS011;58554;52.006;5.926;2023-02-11T06:17:50;37.63;;;14.95;;
70908;SDS011;58554;52.006;5.926;2023-02-11T06:20:17;39.07;;;16.17;;
70908;SDS011;58554;52.006;5.926;2023-02-11T06:22:44;35.70;;;15.70;;
70908;SDS011;58554;52.006;5.926;2023-02-11T06:25:13;38.67;;;15.52;;
70908;SDS011;58554;52.006;5.926;2023-02-11T06:27:40;42.40;;;16.80;;
70908;SDS011;58554;52.006;5.926;2023-02-11T06:30:07;39.85;;;15.35;;
70908;SDS011;58554;52.006;5.926;2023-02-11T06:32:35;40.60;;;16.95;;
70908;SDS011;58554;52.006;5.926;2023-02-11T06:35:02;29.95;;;13.70;;
70908;SDS011;58554;52.006;5.926;2023-02-11T06:37:29;43.03;;;17.88;;
70908;SDS011;58554;52.006;5.926;2023-02-11T06:39:55;39.78;;;16.08;;
70908;SDS011;58554;52.006;5.926;2023-02-11T06:42:25;42.40;;;16.58;;
70908;SDS011;58554;52.006;5.926;2023-02-11T06:44:51;41.45;;;16.25;;
70908;SDS011;58554;52.006;5.926;2023-02-11T06:47:18;40.83;;;16.57;;
70908;SDS011;58554;52.006;5.926;2023-02-11T06:49:44;43.60;;;16.87;;
70908;SDS011;58554;52.006;5.926;2023-02-11T06:52:11;40.72;;;17.88;;
70908;SDS011;58554;52.006;5.926;2023-02-11T06:54:37;41.83;;;16.83;;
70908;SDS011;58554;52.006;5.926;2023-02-11T06:57:04;40.13;;;17.60;;
70908;SDS011;58554;52.006;5.926;2023-02-11T06:59:33;44.30;;;18.05;;
70908;SDS011;58554;52.006;5.926;2023-02-11T07:02:00;45.15;;;17.83;;
70908;SDS011;58554;52.006;5.926;2023-02-11T07:04:26;46.83;;;17.33;;
70908;SDS011;58554;52.006;5.926;2023-02-11T07:06:53;33.60;;;13.80;;
70908;SDS011;58554;52.006;5.926;2023-02-11T07:09:19;41.60;;;17.90;;
70908;SDS011;58554;52.006;5.926;2023-02-11T07:11:46;50.17;;;19.50;;
70908;SDS011;58554;52.006;5.926;2023-02-11T07:14:12;43.97;;;17.10;;
70908;SDS011;58554;52.006;5.926;2023-02-11T07:16:42;46.13;;;18.38;;
70908;SDS011;58554;52.006;5.926;2023-02-11T07:19:08;43.13;;;16.98;;
70908;SDS011;58554;52.006;5.926;2023-02-11T07:21:35;52.58;;;19.77;;
70908;SDS011;58554;52.006;5.926;2023-02-11T07:24:04;50.33;;;18.00;;
70908;SDS011;58554;52.006;5.926;2023-02-11T07:26:32;45.63;;;17.77;;
70908;SDS011;58554;52.006;5.926;2023-02-11T07:28:59;46.10;;;18.48;;
70908;SDS011;58554;52.006;5.926;2023-02-11T07:31:26;46.92;;;17.27;;
70908;SDS011;58554;52.006;5.926;2023-02-11T07:33:58;49.72;;;18.77;;
70908;SDS011;58554;52.006;5.926;2023-02-11T07:36:27;42.45;;;16.45;;
70908;SDS011;58554;52.006;5.926;2023-02-11T07:38:56;47.40;;;18.65;;
70908;SDS011;58554;52.006;5.926;2023-02-11T07:41:24;45.78;;;18.05;;
70908;SDS011;58554;52.006;5.926;2023-02-11T07:43:52;47.53;;;18.03;;
70908;SDS011;58554;52.006;5.926;2023-02-11T07:46:21;43.27;;;18.80;;
70908;SDS011;58554;52.006;5.926;2023-02-11T07:48:51;47.90;;;18.67;;
70908;SDS011;58554;52.006;5.926;2023-02-11T07:51:21;50.97;;;20.27;;
70908;SDS011;58554;52.006;5.926;2023-02-11T07:53:51;44.47;;;18.17;;
70908;SDS011;58554;52.006;5.926;2023-02-11T07:56:20;58.17;;;21.33;;
70908;SDS011;58554;52.006;5.926;2023-02-11T07:58:48;41.88;;;17.55;;
70908;SDS011;58554;52.006;5.926;2023-02-11T08:01:19;38.13;;;16.08;;
70908;SDS011;58554;52.006;5.926;2023-02-11T08:03:49;45.40;;;17.03;;
70908;SDS011;58554;52.006;5.926;2023-02-11T08:06:17;43.10;;;16.60;;
70908;SDS011;58554;52.006;5.926;2023-02-11T08:08:48;50.05;;;17.85;;
70908;SDS011;58554;52.006;5.926;2023-02-11T08:11:16;47.08;;;19.35;;
70908;SDS011;58554;52.006;5.926;2023-02-11T08:13:45;45.72;;;18.83;;
70908;SDS011;58554;52.006;5.926;2023-02-11T08:16:16;53.08;;;20.17;;
70908;SDS011;58554;52.006;5.926;2023-02-11T08:18:46;44.70;;;17.98;;
70908;SDS011;58554;52.006;5.926;2023-02-11T08:21:13;48.85;;;18.60;;
70908;SDS011;58554;52.006;5.926;2023-02-11T08:23:43;53.60;;;19.92;;
70908;SDS011;58554;52.006;5.926;2023-02-11T08:26:12;49.57;;;19.17;;
70908;SDS011;58554;52.006;5.926;2023-02-11T08:28:41;48.77;;;18.63;;
70908;SDS011;58554;52.006;5.926;2023-02-11T08:31:11;45.80;;;18.77;;
70908;SDS011;58554;52.006;5.926;2023-02-11T08:33:41;50.47;;;20.63;;
70908;SDS011;58554;52.006;5.926;2023-02-11T08:36:09;51.53;;;19.23;;
70908;SDS011;58554;52.006;5.926;2023-02-11T08:38:39;47.67;;;19.50;;
70908;SDS011;58554;52.006;5.926;2023-02-11T08:41:09;48.97;;;19.45;;
70908;SDS011;58554;52.006;5.926;2023-02-11T08:43:37;44.45;;;17.77;;
70908;SDS011;58554;52.006;5.926;2023-02-11T08:46:03;48.95;;;18.17;;
70908;SDS011;58554;52.006;5.926;2023-02-11T08:48:30;46.47;;;17.98;;
70908;SDS011;58554;52.006;5.926;2023-02-11T08:50:56;45.37;;;19.10;;
70908;SDS011;58554;52.006;5.926;2023-02-11T08:53:23;43.27;;;18.63;;
70908;SDS011;58554;52.006;5.926;2023-02-11T08:55:52;44.55;;;18.73;;
70908;SDS011;58554;52.006;5.926;2023-02-11T08:58:22;49.55;;;19.02;;
70908;SDS011;58554;52.006;5.926;2023-02-11T09:00:49;43.15;;;17.02;;
70908;SDS011;58554;52.006;5.926;2023-02-11T09:03:15;41.65;;;17.27;;
70908;SDS011;58554;52.006;5.926;2023-02-11T09:05:42;44.05;;;17.70;;
70908;SDS011;58554;52.006;5.926;2023-02-11T09:08:12;37.42;;;14.90;;
70908;SDS011;58554;52.006;5.926;2023-02-11T09:10:39;44.75;;;18.30;;
70908;SDS011;58554;52.006;5.926;2023-02-11T09:13:07;36.90;;;15.83;;
70908;SDS011;58554;52.006;5.926;2023-02-11T09:15:36;40.67;;;17.20;;
70908;SDS011;58554;52.006;5.926;2023-02-11T09:18:03;38.95;;;16.77;;
70908;SDS011;58554;52.006;5.926;2023-02-11T09:20:30;45.83;;;17.63;;
70908;SDS011;58554;52.006;5.926;2023-02-11T09:22:58;42.75;;;18.23;;
70908;SDS011;58554;52.006;5.926;2023-02-11T09:25:25;44.20;;;16.20;;
70908;SDS011;58554;52.006;5.926;2023-02-11T09:27:51;38.85;;;15.93;;
70908;SDS011;58554;52.006;5.926;2023-02-11T09:30:19;44.00;;;16.52;;
70908;SDS011;58554;52.006;5.926;2023-02-11T09:32:49;38.13;;;14.97;;
70908;SDS011;58554;52.006;5.926;2023-02-11T09:35:15;40.33;;;17.23;;
70908;SDS011;58554;52.006;5.926;2023-02-11T09:37:42;40.25;;;16.90;;
70908;SDS011;58554;52.006;5.926;2023-02-11T09:40:09;43.90;;;18.15;;
70908;SDS011;58554;52.006;5.926;2023-02-11T09:42:44;43.20;;;18.08;;
70908;SDS011;58554;52.006;5.926;2023-02-11T09:45:17;44.50;;;17.00;;
70908;SDS011;58554;52.006;5.926;2023-02-11T09:47:51;36.00;;;15.97;;
70908;SDS011;58554;52.006;5.926;2023-02-11T09:50:25;43.33;;;18.33;;
70908;SDS011;58554;52.006;5.926;2023-02-11T09:52:59;44.70;;;19.02;;
70908;SDS011;58554;52.006;5.926;2023-02-11T09:55:32;41.90;;;17.40;;
70908;SDS011;58554;52.006;5.926;2023-02-11T09:58:06;43.38;;;16.75;;
70908;SDS011;58554;52.006;5.926;2023-02-11T10:00:39;41.70;;;18.30;;
70908;SDS011;58554;52.006;5.926;2023-02-11T10:03:20;39.50;;;16.63;;
70908;SDS011;58554;52.006;5.926;2023-02-11T10:06:18;39.30;;;16.45;;
70908;SDS011;58554;52.006;5.926;2023-02-11T10:09:10;43.57;;;17.67;;
70908;SDS011;58554;52.006;5.926;2023-02-11T10:12:16;38.27;;;16.57;;
70908;SDS011;58554;52.006;5.926;2023-02-11T10:17:58;41.78;;;17.05;;
70908;SDS011;58554;52.006;5.926;2023-02-11T10:20:52;40.95;;;16.70;;
70908;SDS011;58554;52.006;5.926;2023-02-11T10:23:42;37.05;;;15.60;;
70908;SDS011;58554;52.006;5.926;2023-02-11T10:26:16;37.97;;;16.95;;
70908;SDS011;58554;52.006;5.926;2023-02-11T10:28:44;33.60;;;15.32;;
70908;SDS011;58554;52.006;5.926;2023-02-11T10:31:15;35.33;;;16.33;;
70908;SDS011;58554;52.006;5.926;2023-02-11T10:33:48;35.23;;;16.23;;
70908;SDS011;58554;52.006;5.926;2023-02-11T10:36:25;39.80;;;16.60;;
70908;SDS011;58554;52.006;5.926;2023-02-11T10:38:56;36.00;;;16.73;;
70908;SDS011;58554;52.006;5.926;2023-02-11T10:41:26;34.92;;;16.45;;
70908;SDS011;58554;52.006;5.926;2023-02-11T10:43:58;37.03;;;16.55;;
70908;SDS011;58554;52.006;5.926;2023-02-11T10:46:28;38.20;;;16.20;;
70908;SDS011;58554;52.006;5.926;2023-02-11T10:48:59;36.53;;;15.90;;
70908;SDS011;58554;52.006;5.926;2023-02-11T10:51:29;35.47;;;15.73;;
70908;SDS011;58554;52.006;5.926;2023-02-11T10:54:09;37.27;;;17.33;;
70908;SDS011;58554;52.006;5.926;2023-02-11T10:56:43;30.83;;;15.33;;
70908;SDS011;58554;52.006;5.926;2023-02-11T10:59:14;36.43;;;16.23;;
70908;SDS011;58554;52.006;5.926;2023-02-11T11:01:51;32.87;;;16.10;;
70908;SDS011;58554;52.006;5.926;2023-02-11T11:04:36;32.77;;;15.40;;
70908;SDS011;58554;52.006;5.926;2023-02-11T11:09:56;31.03;;;14.73;;
70908;SDS011;58554;52.006;5.926;2023-02-11T11:12:28;32.72;;;16.75;;
70908;SDS011;58554;52.006;5.926;2023-02-11T11:15:01;31.23;;;14.75;;
70908;SDS011;58554;52.006;5.926;2023-02-11T11:17:43;37.10;;;14.87;;
70908;SDS011;58554;52.006;5.926;2023-02-11T11:23:09;34.78;;;14.85;;
70908;SDS011;58554;52.006;5.926;2023-02-11T11:25:44;33.23;;;15.57;;
70908;SDS011;58554;52.006;5.926;2023-02-11T11:28:27;31.03;;;15.00;;
70908;SDS011;58554;52.006;5.926;2023-02-11T11:30:59;32.08;;;14.57;;
70908;SDS011;58554;52.006;5.926;2023-02-11T11:33:27;31.05;;;15.77;;
70908;SDS011;58554;52.006;5.926;2023-02-11T11:36:01;27.40;;;14.13;;
70908;SDS011;58554;52.006;5.926;2023-02-11T11:38:36;31.27;;;15.13;;
70908;SDS011;58554;52.006;5.926;2023-02-11T11:41:19;36.22;;;15.18;;
70908;SDS011;58554;52.006;5.926;2023-02-11T11:43:53;29.48;;;14.77;;
70908;SDS011;58554;52.006;5.926;2023-02-11T11:46:50;32.35;;;16.15;;
70908;SDS011;58554;52.006;5.926;2023-02-11T11:49:47;31.25;;;15.23;;
70908;SDS011;58554;52.006;5.926;2023-02-11T11:52:47;27.92;;;14.82;;
70908;SDS011;58554;52.006;5.926;2023-02-11T11:55:27;29.25;;;14.25;;
70908;SDS011;58554;52.006;5.926;2023-02-11T11:58:03;19.03;;;10.27;;
70908;SDS011;58554;52.006;5.926;2023-02-11T12:00:35;27.10;;;13.45;;
70908;SDS011;58554;52.006;5.926;2023-02-11T12:03:21;24.52;;;13.20;;
70908;SDS011;58554;52.006;5.926;2023-02-11T12:06:39;23.55;;;13.05;;
70908;SDS011;58554;52.006;5.926;2023-02-11T12:09:19;23.73;;;12.45;;
70908;SDS011;58554;52.006;5.926;2023-02-11T12:12:05;26.58;;;13.70;;
70908;SDS011;58554;52.006;5.926;2023-02-11T12:14:52;25.13;;;12.20;;
70908;SDS011;58554;52.006;5.926;2023-02-11T12:17:41;22.23;;;11.70;;
70908;SDS011;58554;52.006;5.926;2023-02-11T12:20:31;21.55;;;11.70;;
70908;SDS011;58554;52.006;5.926;2023-02-11T12:23:32;23.60;;;11.70;;
70908;SDS011;58554;52.006;5.926;2023-02-11T12:26:18;19.88;;;11.48;;
70908;SDS011;58554;52.006;5.926;2023-02-11T12:28:57;18.42;;;11.02;;
70908;SDS011;58554;52.006;5.926;2023-02-11T12:31:42;23.90;;;12.77;;
70908;SDS011;58554;52.006;5.926;2023-02-11T12:34:27;21.08;;;11.60;;
70908;SDS011;58554;52.006;5.926;2023-02-11T12:37:32;19.80;;;11.17;;
70908;SDS011;58554;52.006;5.926;2023-02-11T12:40:19;21.33;;;11.60;;
70908;SDS011;58554;52.006;5.926;2023-02-11T12:43:01;19.60;;;10.80;;
70908;SDS011;58554;52.006;5.926;2023-02-11T12:45:52;20.13;;;10.68;;
70908;SDS011;58554;52.006;5.926;2023-02-11T12:48:49;20.77;;;10.70;;
70908;SDS011;58554;52.006;5.926;2023-02-11T12:51:53;17.23;;;9.90;;
70908;SDS011;58554;52.006;5.926;2023-02-11T12:54:36;19.48;;;10.30;;
70908;SDS011;58554;52.006;5.926;2023-02-11T12:57:14;19.17;;;9.97;;
70908;SDS011;58554;52.006;5.926;2023-02-11T12:59:50;16.80;;;9.30;;
70908;SDS011;58554;52.006;5.926;2023-02-11T13:02:31;17.13;;;10.93;;
70908;SDS011;58554;52.006;5.926;2023-02-11T13:05:15;18.27;;;10.52;;
70908;SDS011;58554;52.006;5.926;2023-02-11T13:07:52;17.25;;;9.77;;
70908;SDS011;58554;52.006;5.926;2023-02-11T13:10:30;17.35;;;9.85;;
70908;SDS011;58554;52.006;5.926;2023-02-11T13:13:01;17.73;;;10.15;;
70908;SDS011;58554;52.006;5.926;2023-02-11T13:15:39;17.47;;;9.40;;
70908;SDS011;58554;52.006;5.926;2023-02-11T13:18:12;18.90;;;9.57;;
70908;SDS011;58554;52.006;5.926;2023-02-11T13:20:54;17.60;;;9.68;;
70908;SDS011;58554;52.006;5.926;2023-02-11T13:23:37;16.25;;;9.45;;
70908;SDS011;58554;52.006;5.926;2023-02-11T13:26:17;18.08;;;9.57;;
70908;SDS011;58554;52.006;5.926;2023-02-11T13:28:53;18.90;;;10.30;;
70908;SDS011;58554;52.006;5.926;2023-02-11T13:31:51;16.48;;;9.23;;
70908;SDS011;58554;52.006;5.926;2023-02-11T13:34:25;18.53;;;9.07;;
70908;SDS011;58554;52.006;5.926;2023-02-11T13:37:30;16.43;;;9.30;;
70908;SDS011;58554;52.006;5.926;2023-02-11T13:40:06;16.33;;;8.82;;
70908;SDS011;58554;52.006;5.926;2023-02-11T13:42:50;16.10;;;8.50;;
70908;SDS011;58554;52.006;5.926;2023-02-11T13:45:29;15.90;;;9.02;;
70908;SDS011;58554;52.006;5.926;2023-02-11T13:48:13;15.52;;;8.82;;
70908;SDS011;58554;52.006;5.926;2023-02-11T13:50:50;15.82;;;9.05;;
70908;SDS011;58554;52.006;5.926;2023-02-11T13:53:22;16.25;;;9.13;;
70908;SDS011;58554;52.006;5.926;2023-02-11T13:55:52;14.70;;;8.63;;
70908;SDS011;58554;52.006;5.926;2023-02-11T13:58:38;18.00;;;8.85;;
70908;SDS011;58554;52.006;5.926;2023-02-11T14:04:26;16.73;;;10.18;;
70908;SDS011;58554;52.006;5.926;2023-02-11T14:09:57;22.67;;;10.48;;
70908;SDS011;58554;52.006;5.926;2023-02-11T14:12:29;18.65;;;10.82;;
70908;SDS011;58554;52.006;5.926;2023-02-11T14:15:09;20.37;;;11.47;;
70908;SDS011;58554;52.006;5.926;2023-02-11T14:21:18;21.33;;;11.70;;
70908;SDS011;58554;52.006;5.926;2023-02-11T14:27:13;24.90;;;12.07;;
70908;SDS011;58554;52.006;5.926;2023-02-11T14:29:59;21.25;;;11.02;;
70908;SDS011;58554;52.006;5.926;2023-02-11T14:32:41;19.02;;;10.88;;
70908;SDS011;58554;52.006;5.926;2023-02-11T14:35:34;20.42;;;11.05;;
70908;SDS011;58554;52.006;5.926;2023-02-11T14:38:16;17.38;;;9.25;;
70908;SDS011;58554;52.006;5.926;2023-02-11T14:40:57;24.58;;;11.52;;
70908;SDS011;58554;52.006;5.926;2023-02-11T14:43:37;19.50;;;10.27;;
70908;SDS011;58554;52.006;5.926;2023-02-11T14:46:10;18.27;;;10.60;;
70908;SDS011;58554;52.006;5.926;2023-02-11T14:48:42;18.40;;;10.07;;
70908;SDS011;58554;52.006;5.926;2023-02-11T14:51:15;18.73;;;10.55;;
70908;SDS011;58554;52.006;5.926;2023-02-11T14:53:50;20.98;;;10.68;;
70908;SDS011;58554;52.006;5.926;2023-02-11T14:56:22;19.98;;;10.73;;
70908;SDS011;58554;52.006;5.926;2023-02-11T14:58:55;20.55;;;11.02;;
70908;SDS011;58554;52.006;5.926;2023-02-11T15:01:25;17.90;;;10.18;;
70908;SDS011;58554;52.006;5.926;2023-02-11T15:03:57;19.85;;;10.88;;
70908;SDS011;58554;52.006;5.926;2023-02-11T15:06:29;18.13;;;9.82;;
70908;SDS011;58554;52.006;5.926;2023-02-11T15:09:02;16.67;;;9.38;;
70908;SDS011;58554;52.006;5.926;2023-02-11T15:11:40;16.42;;;9.43;;
70908;SDS011;58554;52.006;5.926;2023-02-11T15:14:18;17.98;;;9.68;;
70908;SDS011;58554;52.006;5.926;2023-02-11T15:16:51;16.50;;;9.00;;
70908;SDS011;58554;52.006;5.926;2023-02-11T15:19:28;18.08;;;9.25;;
70908;SDS011;58554;52.006;5.926;2023-02-11T15:21:58;16.52;;;8.82;;
70908;SDS011;58554;52.006;5.926;2023-02-11T15:24:26;15.40;;;8.77;;